sensor_id;sensor_type;location;lat;lon;timestamp;pressure;altitude;pressure_sealevel;temperature;humidity
76586;BME280;65251;51.022;13.736;2022-12-10T00:00:09;98343.34;;;2.00;78.45
76586;BME280;65251;51.022;13.736;2022-12-10T00:00:40;98343.16;;;2.01;78.41
76586;BME280;65251;51.022;13.736;2022-12-10T00:01:13;98350.06;;;2.02;78.31
76586;BME280;65251;51.022;13.736;2022-12-10T00:01:46;98345.63;;;2.03;78.27
76586;BME280;65251;51.022;13.736;2022-12-10T00:02:18;98339.38;;;2.04;78.18
76586;BME280;65251;51.022;13.736;2022-12-10T00:02:48;98340.38;;;2.03;77.92
76586;BME280;65251;51.022;13.736;2022-12-10T00:03:20;98339.38;;;2.04;78.04
76586;BME280;65251;51.022;13.736;2022-12-10T00:03:51;98341.84;;;2.05;78.03
76586;BME280;65251;51.022;13.736;2022-12-10T00:04:22;98340.84;;;2.06;77.76
76586;BME280;65251;51.022;13.736;2022-12-10T00:04:54;98344.94;;;2.09;77.87
76586;BME280;65251;51.022;13.736;2022-12-10T00:05:24;98338.50;;;2.12;77.86
76586;BME280;65251;51.022;13.736;2022-12-10T00:05:59;98340.97;;;2.13;77.86
76586;BME280;65251;51.022;13.736;2022-12-10T00:06:34;98339.16;;;2.14;77.70
76586;BME280;65251;51.022;13.736;2022-12-10T00:07:06;98339.63;;;2.17;77.60
76586;BME280;65251;51.022;13.736;2022-12-10T00:07:37;98339.09;;;2.22;77.65
76586;BME280;65251;51.022;13.736;2022-12-10T00:08:07;98338.91;;;2.23;77.67
76586;BME280;65251;51.022;13.736;2022-12-10T00:08:39;98337.75;;;2.26;77.58
76586;BME280;65251;51.022;13.736;2022-12-10T00:09:13;98342.03;;;2.27;77.73
76586;BME280;65251;51.022;13.736;2022-12-10T00:09:44;98342.66;;;2.29;77.22
76586;BME280;65251;51.022;13.736;2022-12-10T00:10:16;98348.56;;;2.31;77.24
76586;BME280;65251;51.022;13.736;2022-12-10T00:10:46;98339.53;;;2.33;77.25
76586;BME280;65251;51.022;13.736;2022-12-10T00:11:19;98340.16;;;2.35;77.13
76586;BME280;65251;51.022;13.736;2022-12-10T00:11:50;98336.19;;;2.39;76.95
76586;BME280;65251;51.022;13.736;2022-12-10T00:12:22;98332.56;;;2.40;76.98
76586;BME280;65251;51.022;13.736;2022-12-10T00:12:53;98346.97;;;2.45;76.81
76586;BME280;65251;51.022;13.736;2022-12-10T00:13:25;98336.28;;;2.46;76.81
76586;BME280;65251;51.022;13.736;2022-12-10T00:13:58;98337.94;;;2.47;76.88
76586;BME280;65251;51.022;13.736;2022-12-10T00:14:29;98340.72;;;2.46;76.71
76586;BME280;65251;51.022;13.736;2022-12-10T00:15:00;98336.94;;;2.48;76.54
76586;BME280;65251;51.022;13.736;2022-12-10T00:15:34;98333.50;;;2.48;76.30
76586;BME280;65251;51.022;13.736;2022-12-10T00:16:07;98339.41;;;2.50;76.37
76586;BME280;65251;51.022;13.736;2022-12-10T00:16:38;98335.94;;;2.49;76.34
76586;BME280;65251;51.022;13.736;2022-12-10T00:17:09;98343.00;;;2.49;76.53
76586;BME280;65251;51.022;13.736;2022-12-10T00:17:41;98341.09;;;2.42;76.44
76586;BME280;65251;51.022;13.736;2022-12-10T00:18:12;98345.53;;;2.42;76.60
76586;BME280;65251;51.022;13.736;2022-12-10T00:18:43;98338.34;;;2.36;76.94
76586;BME280;65251;51.022;13.736;2022-12-10T00:19:13;98339.69;;;2.32;77.00
76586;BME280;65251;51.022;13.736;2022-12-10T00:19:45;98341.97;;;2.35;76.97
76586;BME280;65251;51.022;13.736;2022-12-10T00:20:16;98334.91;;;2.35;76.63
76586;BME280;65251;51.022;13.736;2022-12-10T00:20:47;98335.72;;;2.36;76.59
76586;BME280;65251;51.022;13.736;2022-12-10T00:21:23;98339.19;;;2.36;76.78
76586;BME280;65251;51.022;13.736;2022-12-10T00:21:54;98338.34;;;2.36;76.50
76586;BME280;65251;51.022;13.736;2022-12-10T00:22:26;98334.56;;;2.38;76.56
76586;BME280;65251;51.022;13.736;2022-12-10T00:22:56;98336.19;;;2.39;76.83
76586;BME280;65251;51.022;13.736;2022-12-10T00:23:27;98338.63;;;2.41;76.81
76586;BME280;65251;51.022;13.736;2022-12-10T00:24:02;98338.63;;;2.41;76.54
76586;BME280;65251;51.022;13.736;2022-12-10T00:24:33;98342.63;;;2.37;76.66
76586;BME280;65251;51.022;13.736;2022-12-10T00:25:06;98338.84;;;2.39;76.74
76586;BME280;65251;51.022;13.736;2022-12-10T00:25:36;98337.00;;;2.40;76.53
76586;BME280;65251;51.022;13.736;2022-12-10T00:26:09;98339.81;;;2.38;76.52
76586;BME280;65251;51.022;13.736;2022-12-10T00:26:40;98343.63;;;2.36;76.65
76586;BME280;65251;51.022;13.736;2022-12-10T00:27:12;98341.00;;;2.36;76.72
76586;BME280;65251;51.022;13.736;2022-12-10T00:27:44;98327.38;;;2.32;76.65
76586;BME280;65251;51.022;13.736;2022-12-10T00:28:15;98341.34;;;2.33;76.68
76586;BME280;65251;51.022;13.736;2022-12-10T00:28:49;98336.25;;;2.31;76.80
76586;BME280;65251;51.022;13.736;2022-12-10T00:29:20;98336.91;;;2.33;76.81
76586;BME280;65251;51.022;13.736;2022-12-10T00:29:51;98338.69;;;2.33;76.55
76586;BME280;65251;51.022;13.736;2022-12-10T00:30:22;98339.34;;;2.35;76.72
76586;BME280;65251;51.022;13.736;2022-12-10T00:30:53;98342.16;;;2.33;76.63
76586;BME280;65251;51.022;13.736;2022-12-10T00:31:26;98344.78;;;2.33;76.74
76586;BME280;65251;51.022;13.736;2022-12-10T00:31:58;98348.88;;;2.36;76.71
76586;BME280;65251;51.022;13.736;2022-12-10T00:32:29;98344.25;;;2.38;76.78
76586;BME280;65251;51.022;13.736;2022-12-10T00:32:59;98346.34;;;2.42;76.71
76586;BME280;65251;51.022;13.736;2022-12-10T00:33:32;98344.69;;;2.41;76.20
76586;BME280;65251;51.022;13.736;2022-12-10T00:34:05;98336.63;;;2.43;76.71
76586;BME280;65251;51.022;13.736;2022-12-10T00:34:36;98350.25;;;2.47;76.19
76586;BME280;65251;51.022;13.736;2022-12-10T00:35:08;98347.28;;;2.50;76.32
76586;BME280;65251;51.022;13.736;2022-12-10T00:35:39;98348.75;;;2.52;76.06
76586;BME280;65251;51.022;13.736;2022-12-10T00:36:12;98347.28;;;2.50;75.89
76586;BME280;65251;51.022;13.736;2022-12-10T00:36:45;98348.09;;;2.50;76.04
76586;BME280;65251;51.022;13.736;2022-12-10T00:37:16;98349.75;;;2.51;75.95
76586;BME280;65251;51.022;13.736;2022-12-10T00:37:48;98344.19;;;2.46;76.13
76586;BME280;65251;51.022;13.736;2022-12-10T00:38:19;98347.16;;;2.43;76.23
76586;BME280;65251;51.022;13.736;2022-12-10T00:38:50;98346.16;;;2.44;76.28
76586;BME280;65251;51.022;13.736;2022-12-10T00:39:21;98344.53;;;2.43;76.31
76586;BME280;65251;51.022;13.736;2022-12-10T00:39:53;98345.16;;;2.45;76.40
76586;BME280;65251;51.022;13.736;2022-12-10T00:40:23;98341.72;;;2.45;76.37
76586;BME280;65251;51.022;13.736;2022-12-10T00:40:54;98344.81;;;2.48;76.03
76586;BME280;65251;51.022;13.736;2022-12-10T00:41:26;98348.28;;;2.49;76.18
76586;BME280;65251;51.022;13.736;2022-12-10T00:41:57;98346.47;;;2.49;76.20
76586;BME280;65251;51.022;13.736;2022-12-10T00:42:28;98341.84;;;2.51;76.08
76586;BME280;65251;51.022;13.736;2022-12-10T00:42:59;98344.31;;;2.53;76.02
76586;BME280;65251;51.022;13.736;2022-12-10T00:43:30;98356.28;;;2.55;75.98
76586;BME280;65251;51.022;13.736;2022-12-10T00:44:02;98349.22;;;2.56;75.89
76586;BME280;65251;51.022;13.736;2022-12-10T00:44:34;98346.41;;;2.57;76.10
76586;BME280;65251;51.022;13.736;2022-12-10T00:45:06;98336.34;;;2.61;75.93
76586;BME280;65251;51.022;13.736;2022-12-10T00:45:36;98338.63;;;2.64;75.75
76586;BME280;65251;51.022;13.736;2022-12-10T00:46:08;98341.88;;;2.66;75.78
76586;BME280;65251;51.022;13.736;2022-12-10T00:46:40;98342.34;;;2.69;75.53
76586;BME280;65251;51.022;13.736;2022-12-10T00:47:11;98350.41;;;2.68;75.39
76586;BME280;65251;51.022;13.736;2022-12-10T00:47:42;98347.63;;;2.69;75.44
76586;BME280;65251;51.022;13.736;2022-12-10T00:48:13;98347.44;;;2.71;75.19
76586;BME280;65251;51.022;13.736;2022-12-10T00:48:44;98345.63;;;2.71;75.60
76586;BME280;65251;51.022;13.736;2022-12-10T00:49:15;98337.75;;;2.71;75.36
76586;BME280;65251;51.022;13.736;2022-12-10T00:49:47;98338.72;;;2.70;75.20
76586;BME280;65251;51.022;13.736;2022-12-10T00:50:18;98345.81;;;2.70;75.20
76586;BME280;65251;51.022;13.736;2022-12-10T00:50:55;98341.53;;;2.69;75.36
76586;BME280;65251;51.022;13.736;2022-12-10T00:51:27;98340.88;;;2.67;75.31
76586;BME280;65251;51.022;13.736;2022-12-10T00:51:59;98337.78;;;2.63;75.39
76586;BME280;65251;51.022;13.736;2022-12-10T00:52:30;98345.25;;;2.60;75.47
76586;BME280;65251;51.022;13.736;2022-12-10T00:53:00;98351.50;;;2.59;75.57
76586;BME280;65251;51.022;13.736;2022-12-10T00:53:34;98351.53;;;2.51;75.53
76586;BME280;65251;51.022;13.736;2022-12-10T00:54:05;98349.63;;;2.45;75.91
76586;BME280;65251;51.022;13.736;2022-12-10T00:54:36;98347.72;;;2.38;76.10
76586;BME280;65251;51.022;13.736;2022-12-10T00:55:08;98351.84;;;2.33;76.42
76586;BME280;65251;51.022;13.736;2022-12-10T00:55:39;98353.00;;;2.30;76.48
76586;BME280;65251;51.022;13.736;2022-12-10T00:56:12;98348.09;;;2.27;76.30
76586;BME280;65251;51.022;13.736;2022-12-10T00:56:42;98349.72;;;2.28;76.75
76586;BME280;65251;51.022;13.736;2022-12-10T00:57:14;98351.72;;;2.26;76.93
76586;BME280;65251;51.022;13.736;2022-12-10T00:57:45;98350.41;;;2.22;76.83
76586;BME280;65251;51.022;13.736;2022-12-10T00:58:15;98355.50;;;2.24;76.97
76586;BME280;65251;51.022;13.736;2022-12-10T00:58:47;98349.78;;;2.20;76.87
76586;BME280;65251;51.022;13.736;2022-12-10T00:59:21;98350.97;;;2.18;76.97
76586;BME280;65251;51.022;13.736;2022-12-10T00:59:51;98348.16;;;2.19;77.17
76586;BME280;65251;51.022;13.736;2022-12-10T01:00:22;98355.41;;;2.17;77.01
76586;BME280;65251;51.022;13.736;2022-12-10T01:00:54;98353.59;;;2.18;76.98
76586;BME280;65251;51.022;13.736;2022-12-10T01:01:38;98357.22;;;2.17;76.94
76586;BME280;65251;51.022;13.736;2022-12-10T01:02:10;98357.38;;;2.15;77.10
76586;BME280;65251;51.022;13.736;2022-12-10T01:02:40;98341.78;;;2.14;77.32
76586;BME280;65251;51.022;13.736;2022-12-10T01:03:12;98351.13;;;2.16;77.27
76586;BME280;65251;51.022;13.736;2022-12-10T01:03:43;98352.59;;;2.19;77.15
76586;BME280;65251;51.022;13.736;2022-12-10T01:04:17;98353.44;;;2.19;77.27
76586;BME280;65251;51.022;13.736;2022-12-10T01:04:52;98351.41;;;2.21;77.30
76586;BME280;65251;51.022;13.736;2022-12-10T01:05:24;98349.59;;;2.22;77.03
76586;BME280;65251;51.022;13.736;2022-12-10T01:05:56;98354.34;;;2.26;76.99
76586;BME280;65251;51.022;13.736;2022-12-10T01:06:29;98351.53;;;2.28;77.05
76586;BME280;65251;51.022;13.736;2022-12-10T01:07:00;98347.28;;;2.27;77.01
76586;BME280;65251;51.022;13.736;2022-12-10T01:07:32;98354.81;;;2.30;76.82
76586;BME280;65251;51.022;13.736;2022-12-10T01:08:03;98354.00;;;2.29;76.70
76586;BME280;65251;51.022;13.736;2022-12-10T01:08:34;98352.72;;;2.25;76.90
76586;BME280;65251;51.022;13.736;2022-12-10T01:09:07;98349.91;;;2.27;76.96
76586;BME280;65251;51.022;13.736;2022-12-10T01:09:39;98357.16;;;2.25;76.87
76586;BME280;65251;51.022;13.736;2022-12-10T01:10:09;98348.91;;;2.28;76.98
76586;BME280;65251;51.022;13.736;2022-12-10T01:10:40;98353.00;;;2.30;76.76
76586;BME280;65251;51.022;13.736;2022-12-10T01:11:14;98349.03;;;2.34;76.64
76586;BME280;65251;51.022;13.736;2022-12-10T01:11:49;98349.22;;;2.33;76.66
76586;BME280;65251;51.022;13.736;2022-12-10T01:12:21;98349.22;;;2.33;76.43
76586;BME280;65251;51.022;13.736;2022-12-10T01:12:51;98348.56;;;2.31;76.71
76586;BME280;65251;51.022;13.736;2022-12-10T01:13:22;98353.00;;;2.30;76.82
76586;BME280;65251;51.022;13.736;2022-12-10T01:13:54;98349.38;;;2.31;76.93
76586;BME280;65251;51.022;13.736;2022-12-10T01:14:28;98351.38;;;2.29;76.83
76586;BME280;65251;51.022;13.736;2022-12-10T01:15:00;98350.38;;;2.30;76.96
76586;BME280;65251;51.022;13.736;2022-12-10T01:15:31;98347.56;;;2.32;76.76
76586;BME280;65251;51.022;13.736;2022-12-10T01:16:02;98345.78;;;2.32;76.90
76586;BME280;65251;51.022;13.736;2022-12-10T01:16:35;98356.94;;;2.34;76.72
76586;BME280;65251;51.022;13.736;2022-12-10T01:17:06;98348.22;;;2.34;76.70
76586;BME280;65251;51.022;13.736;2022-12-10T01:17:37;98348.69;;;2.37;76.71
76586;BME280;65251;51.022;13.736;2022-12-10T01:18:09;98344.44;;;2.36;76.73
76586;BME280;65251;51.022;13.736;2022-12-10T01:18:41;98341.47;;;2.39;76.40
76586;BME280;65251;51.022;13.736;2022-12-10T01:19:12;98348.88;;;2.36;76.40
76586;BME280;65251;51.022;13.736;2022-12-10T01:19:44;98351.84;;;2.33;76.21
76586;BME280;65251;51.022;13.736;2022-12-10T01:20:15;98350.84;;;2.34;76.47
76586;BME280;65251;51.022;13.736;2022-12-10T01:20:45;98360.56;;;2.33;76.61
76586;BME280;65251;51.022;13.736;2022-12-10T01:21:19;98353.81;;;2.31;76.56
76586;BME280;65251;51.022;13.736;2022-12-10T01:21:51;98363.19;;;2.33;76.69
76586;BME280;65251;51.022;13.736;2022-12-10T01:22:21;98359.72;;;2.33;76.75
76586;BME280;65251;51.022;13.736;2022-12-10T01:22:52;98357.09;;;2.33;76.53
76586;BME280;65251;51.022;13.736;2022-12-10T01:23:23;98348.06;;;2.35;76.59
76586;BME280;65251;51.022;13.736;2022-12-10T01:23:56;98351.31;;;2.37;76.63
76586;BME280;65251;51.022;13.736;2022-12-10T01:24:28;98355.38;;;2.40;76.67
76586;BME280;65251;51.022;13.736;2022-12-10T01:24:59;98358.03;;;2.40;76.58
76586;BME280;65251;51.022;13.736;2022-12-10T01:25:31;98357.03;;;2.41;76.65
76586;BME280;65251;51.022;13.736;2022-12-10T01:26:03;98362.94;;;2.43;76.62
76586;BME280;65251;51.022;13.736;2022-12-10T01:26:35;98357.66;;;2.43;76.55
76586;BME280;65251;51.022;13.736;2022-12-10T01:27:07;98364.38;;;2.46;76.51
76586;BME280;65251;51.022;13.736;2022-12-10T01:27:37;98352.41;;;2.43;76.32
76586;BME280;65251;51.022;13.736;2022-12-10T01:28:08;98359.66;;;2.41;76.57
76586;BME280;65251;51.022;13.736;2022-12-10T01:28:40;98354.59;;;2.39;76.33
76586;BME280;65251;51.022;13.736;2022-12-10T01:29:12;98360.66;;;2.40;76.46
76586;BME280;65251;51.022;13.736;2022-12-10T01:29:44;98348.69;;;2.37;76.56
76586;BME280;65251;51.022;13.736;2022-12-10T01:30:15;98357.75;;;2.35;76.70
76586;BME280;65251;51.022;13.736;2022-12-10T01:30:47;98354.47;;;2.33;76.53
76586;BME280;65251;51.022;13.736;2022-12-10T01:31:21;98366.63;;;2.34;76.78
76586;BME280;65251;51.022;13.736;2022-12-10T01:31:54;98353.66;;;2.32;76.34
76586;BME280;65251;51.022;13.736;2022-12-10T01:32:25;98357.09;;;2.33;76.56
76586;BME280;65251;51.022;13.736;2022-12-10T01:32:57;98360.03;;;2.38;76.55
76586;BME280;65251;51.022;13.736;2022-12-10T01:33:28;98361.19;;;2.35;76.50
76586;BME280;65251;51.022;13.736;2022-12-10T01:33:59;98363.66;;;2.37;76.46
76586;BME280;65251;51.022;13.736;2022-12-10T01:34:31;98365.47;;;2.36;76.34
76586;BME280;65251;51.022;13.736;2022-12-10T01:35:02;98361.38;;;2.34;76.28
76586;BME280;65251;51.022;13.736;2022-12-10T01:35:35;98361.72;;;2.31;76.47
76586;BME280;65251;51.022;13.736;2022-12-10T01:36:08;98363.88;;;2.27;76.37
76586;BME280;65251;51.022;13.736;2022-12-10T01:36:43;98360.75;;;2.24;76.49
76586;BME280;65251;51.022;13.736;2022-12-10T01:37:14;98360.59;;;2.25;76.67
76586;BME280;65251;51.022;13.736;2022-12-10T01:37:45;98362.91;;;2.20;76.73
76586;BME280;65251;51.022;13.736;2022-12-10T01:38:16;98361.00;;;2.14;76.82
76586;BME280;65251;51.022;13.736;2022-12-10T01:38:49;98361.81;;;2.15;76.92
76586;BME280;65251;51.022;13.736;2022-12-10T01:39:21;98364.78;;;2.12;77.43
76586;BME280;65251;51.022;13.736;2022-12-10T01:39:53;98367.41;;;2.12;77.38
76586;BME280;65251;51.022;13.736;2022-12-10T01:40:24;98361.69;;;2.08;77.16
76586;BME280;65251;51.022;13.736;2022-12-10T01:40:55;98362.34;;;2.10;77.39
76586;BME280;65251;51.022;13.736;2022-12-10T01:41:29;98366.28;;;2.06;77.55
76586;BME280;65251;51.022;13.736;2022-12-10T01:42:00;98366.59;;;2.11;77.60
76586;BME280;65251;51.022;13.736;2022-12-10T01:42:31;98363.31;;;2.09;77.40
76586;BME280;65251;51.022;13.736;2022-12-10T01:43:03;98375.94;;;2.14;77.35
76586;BME280;65251;51.022;13.736;2022-12-10T01:43:51;98372.97;;;2.17;77.30
76586;BME280;65251;51.022;13.736;2022-12-10T01:44:57;98365.75;;;2.19;77.20
76586;BME280;65251;51.022;13.736;2022-12-10T01:45:30;98372.63;;;2.20;77.41
76586;BME280;65251;51.022;13.736;2022-12-10T01:46:01;98372.81;;;2.18;77.28
76586;BME280;65251;51.022;13.736;2022-12-10T01:46:34;98373.63;;;2.19;77.13
76586;BME280;65251;51.022;13.736;2022-12-10T01:47:06;98374.44;;;2.19;77.04
76586;BME280;65251;51.022;13.736;2022-12-10T01:47:38;98371.81;;;2.19;77.13
76586;BME280;65251;51.022;13.736;2022-12-10T01:48:09;98377.06;;;2.19;76.96
76586;BME280;65251;51.022;13.736;2022-12-10T01:48:42;98364.94;;;2.18;76.94
76586;BME280;65251;51.022;13.736;2022-12-10T01:49:15;98371.34;;;2.16;77.09
76586;BME280;65251;51.022;13.736;2022-12-10T01:49:46;98368.16;;;2.20;77.06
76586;BME280;65251;51.022;13.736;2022-12-10T01:50:18;98367.56;;;2.18;76.95
76586;BME280;65251;51.022;13.736;2022-12-10T01:50:49;98367.38;;;2.20;76.88
76586;BME280;65251;51.022;13.736;2022-12-10T01:51:22;98371.63;;;2.21;76.83
76586;BME280;65251;51.022;13.736;2022-12-10T01:51:55;98366.91;;;2.16;76.46
76586;BME280;65251;51.022;13.736;2022-12-10T01:52:27;98372.63;;;2.20;76.84
76586;BME280;65251;51.022;13.736;2022-12-10T01:52:58;98369.38;;;2.18;76.73
76586;BME280;65251;51.022;13.736;2022-12-10T01:53:31;98368.88;;;2.14;76.77
76586;BME280;65251;51.022;13.736;2022-12-10T01:54:04;98369.22;;;2.11;76.52
76586;BME280;65251;51.022;13.736;2022-12-10T01:54:37;98366.28;;;2.06;76.75
76586;BME280;65251;51.022;13.736;2022-12-10T01:56:20;98371.94;;;1.95;77.34
76586;BME280;65251;51.022;13.736;2022-12-10T01:56:58;98379.19;;;1.93;77.69
76586;BME280;65251;51.022;13.736;2022-12-10T01:57:29;98373.63;;;1.88;77.79
76586;BME280;65251;51.022;13.736;2022-12-10T01:58:00;98369.53;;;1.85;77.95
76586;BME280;65251;51.022;13.736;2022-12-10T01:58:31;98372.31;;;1.84;78.10
76586;BME280;65251;51.022;13.736;2022-12-10T01:59:03;98366.25;;;1.83;78.09
76586;BME280;65251;51.022;13.736;2022-12-10T01:59:36;98370.34;;;1.86;78.10
76586;BME280;65251;51.022;13.736;2022-12-10T02:00:11;98373.78;;;1.86;78.08
76586;BME280;65251;51.022;13.736;2022-12-10T02:00:51;98366.06;;;1.85;78.21
76586;BME280;65251;51.022;13.736;2022-12-10T02:01:32;98366.56;;;1.88;78.19
76586;BME280;65251;51.022;13.736;2022-12-10T02:02:17;98370.00;;;1.89;77.98
76586;BME280;65251;51.022;13.736;2022-12-10T02:02:58;98365.09;;;1.86;78.03
76586;BME280;65251;51.022;13.736;2022-12-10T02:03:39;98369.69;;;1.84;78.07
76586;BME280;65251;51.022;13.736;2022-12-10T02:04:22;98368.22;;;1.81;77.98
76586;BME280;65251;51.022;13.736;2022-12-10T02:05:07;98364.66;;;1.74;78.20
76586;BME280;65251;51.022;13.736;2022-12-10T02:05:42;98367.28;;;1.74;78.20
76586;BME280;65251;51.022;13.736;2022-12-10T02:06:31;98365.34;;;1.68;78.56
76586;BME280;65251;51.022;13.736;2022-12-10T02:07:15;98366.66;;;1.64;78.56
76586;BME280;65251;51.022;13.736;2022-12-10T02:07:59;98370.28;;;1.63;78.72
76586;BME280;65251;51.022;13.736;2022-12-10T02:08:44;98360.94;;;1.60;78.88
76586;BME280;65251;51.022;13.736;2022-12-10T02:09:25;98365.19;;;1.61;78.99
76586;BME280;65251;51.022;13.736;2022-12-10T02:10:04;98360.59;;;1.63;78.93
76586;BME280;65251;51.022;13.736;2022-12-10T02:10:54;98363.03;;;1.65;78.78
76586;BME280;65251;51.022;13.736;2022-12-10T02:11:36;98360.25;;;1.66;78.77
76586;BME280;65251;51.022;13.736;2022-12-10T02:12:17;98362.53;;;1.69;78.67
76586;BME280;65251;51.022;13.736;2022-12-10T02:12:57;98365.00;;;1.71;78.70
76586;BME280;65251;51.022;13.736;2022-12-10T02:13:39;98361.69;;;1.77;78.38
76586;BME280;65251;51.022;13.736;2022-12-10T02:14:17;98360.34;;;1.81;78.42
76586;BME280;65251;51.022;13.736;2022-12-10T02:14:55;98364.78;;;1.81;78.25
76586;BME280;65251;51.022;13.736;2022-12-10T02:15:32;98361.31;;;1.80;78.22
76586;BME280;65251;51.022;13.736;2022-12-10T02:16:10;98362.34;;;1.79;78.14
76586;BME280;65251;51.022;13.736;2022-12-10T02:16:48;98362.03;;;1.74;78.39
76586;BME280;65251;51.022;13.736;2022-12-10T02:17:27;98357.78;;;1.73;78.45
76586;BME280;65251;51.022;13.736;2022-12-10T02:18:06;98364.84;;;1.72;78.45
76586;BME280;65251;51.022;13.736;2022-12-10T02:18:46;98351.53;;;1.74;78.61
76586;BME280;65251;51.022;13.736;2022-12-10T02:19:31;98362.84;;;1.75;78.51
76586;BME280;65251;51.022;13.736;2022-12-10T02:20:13;98362.69;;;1.76;78.63
76586;BME280;65251;51.022;13.736;2022-12-10T02:20:49;98355.63;;;1.77;78.37
76586;BME280;65251;51.022;13.736;2022-12-10T02:21:28;98361.69;;;1.77;78.40
76586;BME280;65251;51.022;13.736;2022-12-10T02:22:04;98358.25;;;1.77;78.41
76586;BME280;65251;51.022;13.736;2022-12-10T02:22:41;98359.53;;;1.81;78.26
76586;BME280;65251;51.022;13.736;2022-12-10T02:23:19;98361.16;;;1.82;78.25
76586;BME280;65251;51.022;13.736;2022-12-10T02:23:57;98368.88;;;1.83;78.16
76586;BME280;65251;51.022;13.736;2022-12-10T02:24:32;98362.63;;;1.84;77.98
76586;BME280;65251;51.022;13.736;2022-12-10T02:25:08;98361.31;;;1.80;78.15
76586;BME280;65251;51.022;13.736;2022-12-10T02:25:46;98365.44;;;1.83;78.16
76586;BME280;65251;51.022;13.736;2022-12-10T02:26:25;98356.72;;;1.82;78.23
76586;BME280;65251;51.022;13.736;2022-12-10T02:27:06;98353.44;;;1.80;77.98
76586;BME280;65251;51.022;13.736;2022-12-10T02:27:47;98361.31;;;1.80;78.15
76586;BME280;65251;51.022;13.736;2022-12-10T02:28:31;98359.53;;;1.81;78.36
76586;BME280;65251;51.022;13.736;2022-12-10T02:29:12;98348.84;;;1.82;78.08
76586;BME280;65251;51.022;13.736;2022-12-10T02:29:48;98354.59;;;1.86;78.23
76586;BME280;65251;51.022;13.736;2022-12-10T02:30:20;98356.06;;;1.88;78.09
76586;BME280;65251;51.022;13.736;2022-12-10T02:30:52;98345.38;;;1.90;78.17
76586;BME280;65251;51.022;13.736;2022-12-10T02:31:29;98347.19;;;1.89;77.86
76586;BME280;65251;51.022;13.736;2022-12-10T02:32:06;98356.34;;;1.93;77.70
76586;BME280;65251;51.022;13.736;2022-12-10T02:32:41;98350.75;;;1.96;77.65
76586;BME280;65251;51.022;13.736;2022-12-10T02:33:17;98354.84;;;1.99;77.59
76586;BME280;65251;51.022;13.736;2022-12-10T02:33:55;98356.94;;;2.03;77.38
76586;BME280;65251;51.022;13.736;2022-12-10T02:34:31;98344.63;;;2.04;77.22
76586;BME280;65251;51.022;13.736;2022-12-10T02:35:09;98349.72;;;2.05;77.15
76586;BME280;65251;51.022;13.736;2022-12-10T02:35:46;98349.06;;;2.03;77.01
76586;BME280;65251;51.022;13.736;2022-12-10T02:36:22;98359.75;;;2.02;76.97
76586;BME280;65251;51.022;13.736;2022-12-10T02:36:57;98346.50;;;1.95;77.11
76586;BME280;65251;51.022;13.736;2022-12-10T02:37:37;98364.41;;;1.92;77.22
76586;BME280;65251;51.022;13.736;2022-12-10T02:38:14;98357.84;;;1.88;77.48
76586;BME280;65251;51.022;13.736;2022-12-10T02:38:51;98359.84;;;1.86;77.67
76586;BME280;65251;51.022;13.736;2022-12-10T02:39:28;98363.09;;;1.88;77.63
76586;BME280;65251;51.022;13.736;2022-12-10T02:40:07;98362.63;;;1.84;77.75
76586;BME280;65251;51.022;13.736;2022-12-10T02:40:46;98360.66;;;1.86;77.74
76586;BME280;65251;51.022;13.736;2022-12-10T02:41:24;98359.50;;;1.89;77.72
76586;BME280;65251;51.022;13.736;2022-12-10T02:41:59;98355.22;;;1.88;77.91
76586;BME280;65251;51.022;13.736;2022-12-10T02:42:37;98364.41;;;1.92;77.78
76586;BME280;65251;51.022;13.736;2022-12-10T02:43:09;98355.53;;;1.93;77.59
76586;BME280;65251;51.022;13.736;2022-12-10T02:43:45;98351.94;;;1.94;77.37
76586;BME280;65251;51.022;13.736;2022-12-10T02:44:22;98355.03;;;1.97;77.45
76586;BME280;65251;51.022;13.736;2022-12-10T02:44:56;98357.81;;;1.96;77.35
76586;BME280;65251;51.022;13.736;2022-12-10T02:45:30;98350.75;;;1.96;77.16
76586;BME280;65251;51.022;13.736;2022-12-10T02:46:04;98348.47;;;1.93;77.23
76586;BME280;65251;51.022;13.736;2022-12-10T02:46:38;98355.38;;;1.94;77.39
76586;BME280;65251;51.022;13.736;2022-12-10T02:47:12;98349.28;;;1.94;77.43
76586;BME280;65251;51.022;13.736;2022-12-10T02:47:47;98354.56;;;1.94;77.54
76586;BME280;65251;51.022;13.736;2022-12-10T02:48:18;98350.28;;;1.93;77.23
76586;BME280;65251;51.022;13.736;2022-12-10T02:48:51;98360.97;;;1.91;77.10
76586;BME280;65251;51.022;13.736;2022-12-10T02:49:25;98354.59;;;1.86;77.64
76586;BME280;65251;51.022;13.736;2022-12-10T02:49:59;98354.59;;;1.86;77.63
76586;BME280;65251;51.022;13.736;2022-12-10T02:50:30;98357.38;;;1.84;77.35
76586;BME280;65251;51.022;13.736;2022-12-10T02:51:01;98361.16;;;1.82;77.58
76586;BME280;65251;51.022;13.736;2022-12-10T02:51:32;98356.91;;;1.81;77.62
76586;BME280;65251;51.022;13.736;2022-12-10T02:52:08;98357.91;;;1.80;77.60
76586;BME280;65251;51.022;13.736;2022-12-10T02:52:39;98361.06;;;1.75;77.54
76586;BME280;65251;51.022;13.736;2022-12-10T02:53:10;98363.69;;;1.75;77.57
76586;BME280;65251;51.022;13.736;2022-12-10T02:53:42;98362.69;;;1.76;77.82
76586;BME280;65251;51.022;13.736;2022-12-10T02:54:37;98361.88;;;1.76;77.84
76586;BME280;65251;51.022;13.736;2022-12-10T02:55:10;98360.22;;;1.75;77.73
76586;BME280;65251;51.022;13.736;2022-12-10T02:55:59;98356.63;;;1.76;77.81
76586;BME280;65251;51.022;13.736;2022-12-10T02:56:45;98363.16;;;1.80;77.71
76586;BME280;65251;51.022;13.736;2022-12-10T02:57:36;98356.06;;;1.80;78.17
76586;BME280;65251;51.022;13.736;2022-12-10T02:58:21;98366.25;;;1.83;77.66
76586;BME280;65251;51.022;13.736;2022-12-10T02:59:06;98359.00;;;1.85;77.62
76586;BME280;65251;51.022;13.736;2022-12-10T02:59:53;98358.19;;;1.85;77.15
76586;BME280;65251;51.022;13.736;2022-12-10T03:00:32;98354.09;;;1.82;77.22
76586;BME280;65251;51.022;13.736;2022-12-10T03:01:15;98363.16;;;1.80;77.45